Date,TemperatureHighF,TemperatureAvgF,TemperatureLowF,DewpointHighF,DewpointAvgF,DewpointLowF,HumidityHigh,HumidityAvg,HumidityLow,PressureMaxIn,PressureMinIn,WindSpeedMaxMPH,WindSpeedAvgMPH,GustSpeedMaxMPH,PrecipitationSumIn
2013-1-1,25.0,21.7,8.9,22.0,19.4,6.6,95,91,86,30.60,30.44,5,1,9,0.00
2013-1-2,28.4,22.7,15.3,22.6,19.7,13.1,95,88,76,30.59,30.46,3,0,6,0.00
2013-1-3,27.0,19.1,10.2,21.7,16.0,7.9,93,88,80,30.46,30.32,9,2,15,0.00
2013-1-4,31.0,25.0,13.4,25.7,22.2,11.6,94,89,79,30.41,30.36,6,1,10,0.00
2013-1-5,32.9,29.5,26.3,28.5,26.6,23.6,94,89,83,30.38,30.16,13,5,19,0.00
2013-1-6,33.0,29.6,27.0,28.9,27.7,25.5,96,92,83,30.16,30.03,3,0,6,0.00
2013-1-7,39.4,34.8,29.9,36.8,33.0,28.9,97,93,84,30.03,29.78,14,4,24,0.02
2013-1-8,48.1,36.4,31.1,40.3,33.4,28.9,96,89,70,30.08,29.80,14,2,25,0.16
2013-1-9,48.4,42.3,34.4,38.1,34.9,30.3,86,75,63,29.81,29.53,15,6,28,0.00
2013-1-10,34.6,29.6,26.7,30.3,26.8,24.2,94,89,83,29.80,29.67,6,2,10,0.00
2013-1-11,30.4,23.2,13.4,24.3,16.6,9.4,91,76,56,30.19,29.83,12,4,19,0.00
2013-1-12,26.3,18.7,11.0,20.5,15.4,8.2,94,87,73,30.33,30.22,3,0,5,0.00
2013-1-13,23.4,16.8,10.0,17.5,13.5,7.5,92,87,75,30.44,30.33,4,0,7,0.00
2013-1-14,25.4,21.4,16.9,21.5,18.8,14.2,92,89,84,30.46,30.33,3,0,8,0.00
2013-1-15,32.3,26.3,20.6,27.1,23.6,18.7,94,89,80,30.59,30.44,2,0,3,0.00
2013-1-16,34.9,21.7,13.4,29.2,19.9,11.0,96,93,79,30.58,30.52,3,0,7,0.03
2013-1-17,24.3,20.2,14.2,22.8,18.6,12.5,95,93,92,30.57,30.39,1,0,3,0.00
2013-1-18,25.7,17.2,10.4,24.5,15.4,8.0,97,93,89,30.38,30.27,2,0,2,0.00
2013-1-19,32.2,21.6,13.2,30.9,20.0,11.1,96,94,90,30.46,30.38,3,0,7,0.01
2013-1-20,34.2,20.9,11.9,29.4,18.8,9.5,96,92,78,30.53,30.41,2,0,3,0.00
2013-1-21,25.0,21.2,15.6,23.5,19.7,13.9,95,94,93,30.42,30.30,2,0,4,0.00
2013-1-22,27.2,23.2,19.6,26.2,21.9,17.9,96,95,93,30.33,30.15,7,2,10,0.00
2013-1-23,35.7,29.0,23.6,34.7,27.1,22.4,97,93,84,30.16,29.90,10,4,16,0.00
2013-1-24,36.4,29.9,26.0,31.9,27.6,23.7,96,91,83,30.24,30.03,8,3,15,0.04
2013-1-25,42.2,36.9,31.4,40.0,35.9,30.1,98,96,91,30.12,29.84,5,1,8,0.58
2013-1-26,38.0,34.9,32.2,37.1,33.0,30.2,98,93,84,29.89,29.80,6,2,12,0.04
2013-1-27,32.5,30.6,28.3,30.3,28.5,26.5,95,92,86,29.94,29.88,5,2,11,0.00
2013-1-28,33.1,29.8,26.9,31.1,28.4,25.1,97,94,89,29.89,29.81,10,2,18,0.00
2013-1-29,34.1,31.1,28.3,31.2,29.2,27.3,96,92,83,30.16,29.82,8,2,13,0.00
2013-1-30,40.4,35.9,32.6,36.6,34.0,31.3,96,93,85,30.18,30.07,6,1,11,0.36
2013-1-31,42.4,37.6,34.5,38.3,36.0,33.5,97,94,85,30.22,30.11,5,0,9,0.05
2013-2-1,42.0,35.2,23.8,36.6,32.8,22.8,97,91,80,30.40,30.12,6,1,10,0.00
2013-2-2,38.1,29.2,23.5,36.4,28.4,22.0,98,97,93,30.45,30.23,9,2,13,0.01
2013-2-3,37.4,31.0,26.3,36.8,30.2,25.3,98,97,93,30.23,30.06,3,0,5,0.01
2013-2-4,44.8,35.4,27.4,37.8,33.0,26.3,98,91,74,30.08,29.92,8,1,13,0.00
2013-2-5,42.5,36.8,31.3,37.8,34.2,29.9,96,90,79,29.92,29.76,7,2,13,0.03
2013-2-6,44.8,38.3,32.6,35.8,33.3,30.3,92,82,66,30.00,29.86,8,3,17,0.01
2013-2-7,39.0,35.6,33.2,36.4,33.6,31.0,96,92,89,29.97,29.85,8,3,14,0.07
2013-2-8,39.5,34.5,29.3,34.4,32.1,27.9,97,91,73,30.06,29.97,6,3,10,0.02
2013-2-9,35.5,32.0,26.2,30.3,29.1,24.5,96,89,80,30.14,29.99,6,2,12,0.00
2013-2-10,35.1,31.0,25.3,30.2,28.2,23.6,95,89,79,30.24,30.14,4,1,6,0.00
2013-2-11,39.5,33.8,24.5,32.2,29.6,23.0,96,85,69,30.19,30.13,5,1,9,0.00
2013-2-12,44.3,37.9,32.7,37.2,33.1,30.0,92,83,66,30.24,30.08,7,2,13,0.00
2013-2-13,48.3,38.1,26.7,36.3,31.0,23.6,88,76,49,30.26,30.07,7,3,14,0.00
2013-2-14,43.9,32.5,23.4,32.6,28.0,21.9,96,84,63,30.50,30.27,5,1,9,0.00
2013-2-15,51.7,36.2,25.5,36.9,31.0,24.3,97,83,55,30.51,30.21,6,1,9,0.01
2013-2-16,47.4,37.0,28.8,41.4,33.7,27.5,96,88,73,30.21,29.83,11,4,19,0.02
2013-2-17,44.7,37.0,30.3,32.8,29.1,26.4,95,74,52,30.03,29.88,7,3,13,0.00
2013-2-18,43.2,35.3,27.1,31.0,28.1,25.3,94,76,53,30.03,29.73,7,3,14,0.00
2013-2-19,39.8,34.4,31.3,34.2,31.0,27.4,94,87,74,29.80,29.65,8,3,13,0.01
2013-2-20,38.8,32.4,23.6,32.0,28.3,21.2,94,85,62,29.94,29.81,7,2,12,0.01
2013-2-21,34.2,31.0,22.7,32.5,28.4,20.6,95,90,82,29.99,29.93,5,1,11,0.01
2013-2-22,40.7,35.2,31.4,35.7,32.4,29.6,95,89,76,29.94,29.54,19,4,34,0.31
2013-2-23,43.7,34.2,25.6,30.5,26.8,23.5,94,75,56,30.15,29.61,10,4,19,0.00
2013-2-24,38.9,32.5,23.1,29.2,26.9,21.7,96,80,62,30.28,30.03,5,2,10,0.00
2013-2-25,42.0,36.9,32.1,34.8,29.6,23.7,94,75,62,30.03,29.84,12,5,24,0.11
2013-2-26,39.5,33.3,24.8,28.5,26.4,22.5,93,76,61,30.26,30.03,7,2,17,0.00
2013-2-27,45.1,37.4,31.0,32.0,29.4,26.7,89,73,57,30.22,30.17,8,3,13,0.00
2013-2-28,44.2,38.1,32.0,37.5,35.0,29.6,95,89,72,30.30,30.18,6,2,12,0.09
2013-3-1,54.0,47.4,39.4,44.9,42.4,37.5,96,83,69,30.31,30.19,6,2,12,0.02
2013-3-2,54.0,48.6,40.8,41.9,39.7,37.5,88,72,59,30.19,29.75,15,4,28,0.00
2013-3-3,46.7,39.0,32.7,38.9,23.8,19.0,80,56,36,30.10,29.75,15,8,26,0.01
2013-3-4,46.5,35.2,25.5,28.0,21.7,15.2,91,62,29,30.24,30.03,11,4,22,0.00
2013-3-5,40.6,34.5,29.0,29.7,23.5,19.9,85,65,46,30.04,29.78,15,10,24,0.00
2013-3-6,42.1,36.4,33.7,35.8,31.8,27.2,95,83,70,29.79,29.54,16,8,24,0.06
2013-3-7,44.2,36.3,28.7,37.9,33.5,27.7,96,90,72,30.00,29.79,6,1,11,0.37
2013-3-8,42.6,32.9,26.7,36.9,31.2,25.6,97,94,80,30.08,29.99,4,0,10,0.01
2013-3-9,51.3,36.7,25.5,38.9,28.8,24.5,98,78,40,30.31,30.08,7,1,14,0.00
2013-3-10,46.2,38.0,26.5,36.9,32.1,25.3,96,80,56,30.36,30.19,8,1,15,0.01
2013-3-11,49.4,38.5,28.6,36.5,28.8,21.7,97,72,34,30.26,30.15,9,1,15,0.01
2013-3-12,52.9,43.0,34.3,46.1,38.4,29.2,93,84,69,30.16,29.98,8,2,15,0.14
2013-3-13,55.8,48.8,44.2,44.3,42.9,41.0,91,81,62,30.09,30.00,6,2,9,0.07
2013-3-14,62.9,51.8,40.8,46.4,41.4,31.8,91,70,42,30.03,29.85,9,4,19,0.00
2013-3-15,56.2,47.9,37.7,42.6,38.7,31.5,93,71,42,30.03,29.89,9,2,18,0.02
2013-3-16,50.9,43.2,35.2,41.6,37.4,30.8,95,81,58,29.94,29.57,17,4,31,0.07
2013-3-17,45.2,36.5,32.3,32.0,26.2,19.8,91,67,39,29.93,29.59,14,7,31,0.02
2013-3-18,41.8,33.0,26.6,32.7,26.9,20.9,95,79,57,30.12,29.91,12,3,26,0.04
2013-3-19,48.1,35.3,21.7,31.2,26.3,17.8,96,73,30,30.25,29.80,9,4,17,0.00
2013-3-20,50.5,42.4,37.0,46.6,36.9,29.4,95,82,58,29.80,29.40,17,6,34,0.46
2013-3-21,40.6,34.8,28.7,30.5,25.5,19.8,88,69,47,29.96,29.68,15,7,31,0.00
2013-3-22,39.2,31.1,24.2,29.2,25.9,22.7,95,81,59,30.21,29.95,7,1,15,0.03
2013-3-23,42.9,31.0,21.7,27.5,24.0,18.4,94,77,39,30.31,30.21,7,2,13,0.00
2013-3-24,46.9,33.9,22.6,27.7,20.7,7.3,92,64,21,30.33,30.13,10,3,15,0.00
2013-3-25,53.2,37.6,24.3,28.6,24.0,19.0,82,61,34,30.15,29.93,9,3,14,0.00
2013-3-26,58.0,39.1,27.7,32.3,28.6,24.1,90,69,36,29.95,29.85,9,2,19,0.00
2013-3-27,53.9,44.0,31.1,41.4,36.3,28.5,91,75,62,29.91,29.87,8,4,16,0.00
2013-3-28,60.9,46.1,35.7,45.1,39.5,33.3,97,80,43,29.99,29.91,5,2,11,0.04
2013-3-29,61.4,47.4,33.1,45.0,37.3,32.1,98,72,36,30.11,29.99,9,2,16,0.00
2013-3-30,65.9,47.5,30.1,42.4,34.8,28.3,95,67,30,30.21,30.02,5,2,10,0.00
2013-3-31,71.3,50.2,32.2,41.0,35.8,30.4,95,64,26,30.03,29.81,8,2,15,0.00
2013-4-1,72.8,54.3,39.8,39.9,36.7,33.0,82,56,24,29.86,29.78,11,3,17,0.00
2013-4-2,64.1,52.3,37.9,45.3,41.2,35.6,94,68,44,29.97,29.84,10,2,19,0.00
2013-4-3,63.2,51.3,41.2,44.1,40.6,37.5,90,69,40,30.00,29.89,6,1,14,0.00
2013-4-4,56.2,47.8,37.8,49.1,43.1,35.4,94,84,60,29.90,29.62,10,4,16,0.10
2013-4-5,57.1,50.9,46.8,46.8,43.2,39.0,88,75,61,29.75,29.67,12,6,27,0.11
2013-4-6,54.9,48.3,44.0,43.3,39.2,31.9,91,72,42,29.75,29.69,17,5,30,0.17
2013-4-7,50.8,43.3,39.0,42.0,37.5,34.3,93,81,61,29.71,29.46,14,3,24,0.21
2013-4-8,46.6,38.2,31.7,36.0,31.3,27.1,92,77,53,30.17,29.68,13,5,22,0.00
2013-4-9,54.4,42.2,28.0,35.9,30.2,26.0,93,66,38,30.29,30.12,5,2,12,0.00
2013-4-10,57.5,47.6,43.1,48.1,38.5,34.1,88,72,48,30.12,29.68,18,4,32,0.13
2013-4-11,53.8,44.2,35.3,36.4,33.1,27.5,89,67,39,30.02,29.89,10,3,20,0.00
2013-4-12,55.3,42.9,33.1,36.9,32.9,25.9,93,71,35,30.00,29.49,17,3,30,0.27
2013-4-13,50.2,40.3,32.4,37.6,27.1,19.8,91,61,33,29.73,29.44,16,6,31,0.01
2013-4-14,49.7,36.4,29.7,31.6,29.0,23.5,91,76,38,29.87,29.73,11,2,17,0.00
2013-4-15,46.7,37.8,30.1,29.2,21.2,18.2,78,52,34,30.07,29.81,17,10,25,0.00
2013-4-16,46.8,36.5,26.5,22.1,17.8,13.7,74,48,29,30.29,30.07,17,8,31,0.00
2013-4-17,53.9,39.8,22.9,25.4,18.7,12.5,85,48,22,30.37,30.22,9,3,17,0.00
2013-4-18,53.4,44.5,28.0,36.7,29.6,22.3,81,57,41,30.27,30.07,9,2,16,0.00
2013-4-19,53.9,47.0,42.6,48.8,43.4,36.8,94,87,71,30.07,29.80,9,2,15,0.46
2013-4-20,57.9,50.3,39.6,41.6,36.6,31.7,95,62,41,29.99,29.83,15,6,27,0.00
2013-4-21,47.6,41.7,33.1,41.1,36.0,30.9,92,80,55,30.20,29.93,13,2,24,0.15
2013-4-22,54.3,40.8,29.8,33.0,24.2,14.5,91,57,23,30.42,30.20,7,3,16,0.00
2013-4-23,58.1,43.2,28.8,31.8,27.4,20.4,89,58,26,30.29,30.12,7,1,14,0.00
2013-4-24,62.2,45.0,28.7,35.0,30.7,26.4,93,62,29,30.21,29.87,9,2,18,0.00
2013-4-25,69.2,53.9,33.5,38.1,34.5,30.3,90,53,26,29.92,29.83,9,2,16,0.00
2013-4-26,72.4,58.7,40.5,43.1,39.1,35.3,82,52,27,30.04,29.92,10,3,19,0.00
2013-4-27,63.5,57.3,48.8,42.2,35.7,28.0,76,47,27,29.95,29.80,15,5,28,0.00
2013-4-28,59.5,53.5,44.2,40.7,36.1,28.2,81,54,36,29.93,29.70,14,6,28,0.00
2013-4-29,54.5,47.7,41.5,38.9,27.6,18.1,79,48,24,29.81,29.57,16,9,41,0.05
2013-4-30,49.2,40.2,30.0,30.3,24.7,20.4,87,55,36,30.26,29.81,10,3,24,0.00
2013-5-1,57.7,43.7,26.2,33.3,25.5,14.3,93,56,21,30.52,30.26,6,1,14,0.00
2013-5-2,70.7,51.4,30.0,37.2,30.5,25.2,92,52,19,30.53,30.13,7,2,12,0.00
2013-5-3,68.9,57.9,46.0,42.4,39.0,34.9,78,52,29,30.14,30.03,12,4,21,0.00
2013-5-4,70.3,58.6,44.0,42.1,36.2,31.2,80,47,24,30.14,29.93,17,8,27,0.00
2013-5-5,77.2,61.3,46.1,39.6,35.8,32.1,62,41,20,29.95,29.69,15,8,22,0.00
2013-5-6,85.1,63.7,46.3,44.1,38.4,31.8,72,44,17,29.76,29.55,11,4,21,0.00
2013-5-7,85.3,64.9,43.6,46.6,42.1,37.0,86,50,18,29.73,29.60,10,3,16,0.00
2013-5-8,84.9,69.1,51.2,50.8,44.3,40.3,71,44,23,29.81,29.73,10,3,14,0.00
2013-5-9,86.7,68.6,49.9,52.9,46.9,38.1,89,52,19,29.90,29.80,7,2,12,0.00
2013-5-10,89.6,69.2,48.1,51.5,46.7,40.5,86,50,20,29.99,29.87,10,2,15,0.00
2013-5-11,85.0,69.4,52.0,53.8,49.0,42.6,85,53,24,29.94,29.80,8,2,15,0.00
2013-5-12,80.6,68.1,54.3,55.8,51.8,47.9,87,59,34,29.83,29.74,11,4,21,0.00
2013-5-13,64.9,57.8,50.6,53.7,48.9,37.2,92,73,57,29.91,29.74,15,4,27,0.60
2013-5-14,62.7,51.6,38.1,39.5,34.9,30.6,85,55,31,30.03,29.91,10,2,22,0.00
2013-5-15,40.7,37.5,34.7,37.1,34.8,32.3,93,90,86,29.98,29.96,3,1,4,0.00
2013-5-16,61.3,54.3,44.3,48.8,46.5,41.3,93,76,57,29.81,29.73,4,1,11,0.07
2013-5-17,70.3,55.6,42.3,49.8,45.3,41.0,97,72,36,29.80,29.69,12,2,20,0.03
2013-5-18,58.8,53.0,48.0,49.3,46.0,44.2,91,78,62,30.00,29.80,4,1,7,0.17
2013-5-19,66.0,54.9,46.4,49.8,46.1,43.7,93,73,51,30.12,30.00,5,1,10,0.00
2013-5-20,74.4,58.9,39.4,50.6,46.1,38.1,97,67,35,30.15,29.75,5,1,10,0.00
2013-5-21,78.7,56.7,44.9,54.6,45.8,39.2,93,71,25,29.74,29.38,18,6,31,0.30
2013-5-22,48.1,43.1,38.6,43.5,38.7,35.8,94,85,69,29.92,29.62,9,4,16,0.14
2013-5-23,61.6,48.1,36.8,42.4,37.1,31.8,95,70,34,29.95,29.83,4,2,10,0.01
2013-5-24,55.2,46.0,34.7,43.7,39.7,32.6,94,79,56,29.92,29.84,12,4,21,0.00
2013-5-25,60.8,51.1,40.6,44.1,41.1,37.9,93,70,44,29.92,29.85,5,2,11,0.00
2013-5-26,71.0,57.0,39.9,46.0,41.5,37.0,94,61,31,29.88,29.73,8,4,15,0.00
2013-5-27,67.0,57.3,49.6,50.0,46.6,42.0,93,69,43,29.80,29.62,8,2,14,0.06
2013-5-28,61.5,54.6,49.5,52.2,49.8,47.9,95,84,66,29.69,29.62,8,2,15,0.24
2013-5-29,65.6,53.2,42.3,50.5,46.8,40.9,96,80,44,29.73,29.54,15,3,25,0.07
2013-5-30,58.0,51.2,45.0,49.0,44.8,41.5,94,79,55,30.00,29.73,11,2,18,0.11
2013-5-31,68.9,55.1,41.5,45.8,41.3,35.6,95,64,31,30.15,30.00,8,2,15,0.00
2013-6-1,72.9,57.8,39.9,47.2,41.8,37.4,92,60,33,30.12,29.84,8,3,15,0.00
2013-6-2,60.9,52.5,44.7,50.7,46.8,41.0,93,81,63,29.84,29.75,7,2,13,0.38
2013-6-3,71.6,57.4,42.2,51.7,47.3,40.7,97,73,37,29.92,29.80,11,3,17,0.00
2013-6-4,78.3,62.6,47.9,51.3,47.0,40.3,92,62,27,29.99,29.88,11,2,18,0.00
2013-6-5,80.7,66.0,45.7,52.8,48.5,43.2,93,58,32,29.90,29.75,7,2,13,0.00
2013-6-6,84.5,71.1,55.2,56.0,52.9,50.3,87,56,31,29.80,29.68,9,2,14,0.00
2013-6-7,81.3,69.3,57.3,56.7,49.5,40.2,88,53,26,29.71,29.59,14,5,26,0.00
2013-6-8,77.7,65.8,47.1,46.0,41.3,36.6,74,44,24,29.86,29.70,9,3,17,0.00
2013-6-9,74.4,63.4,49.0,46.7,39.2,28.8,80,46,19,29.74,29.65,12,3,19,0.00
2013-6-10,77.7,61.5,41.2,44.9,41.0,34.6,89,52,23,29.70,29.57,5,2,10,0.00
2013-6-11,69.6,59.0,42.6,47.0,41.0,33.1,92,55,29,29.85,29.61,12,4,21,0.00
2013-6-12,69.6,57.7,46.4,43.7,40.4,37.6,79,55,35,29.91,29.82,5,1,13,0.00
2013-6-13,67.8,55.4,42.1,45.8,42.1,36.1,89,63,33,29.92,29.86,13,3,25,0.00
2013-6-14,68.1,55.2,40.4,46.0,41.5,37.3,94,64,35,30.01,29.91,8,2,15,0.00
2013-6-15,80.7,62.8,40.9,48.6,42.7,36.4,94,55,23,29.93,29.78,7,2,14,0.00
2013-6-16,84.3,67.2,47.6,50.3,46.1,37.8,88,52,20,29.87,29.73,8,3,15,0.00
2013-6-17,84.9,70.1,56.2,56.9,51.5,47.3,77,54,30,29.81,29.62,9,2,16,0.00
2013-6-18,71.5,63.0,58.3,55.7,52.2,48.1,88,69,52,29.71,29.61,14,5,25,0.00
2013-6-19,58.8,53.8,49.9,52.4,50.0,47.2,94,87,68,29.71,29.60,8,3,14,0.40
2013-6-20,51.1,49.3,48.1,48.8,46.6,43.7,95,90,83,29.95,29.63,13,5,25,1.42
2013-6-21,64.6,54.5,47.6,50.5,48.2,46.2,96,80,56,30.00,29.94,5,2,12,0.10
2013-6-22,68.7,56.9,42.7,52.5,48.6,41.6,97,76,47,29.97,29.81,6,1,11,0.00
2013-6-23,77.6,63.1,45.8,56.0,49.1,42.8,96,66,31,29.81,29.46,5,2,12,0.00
2013-6-24,66.0,60.4,55.9,59.2,55.3,53.4,93,84,71,29.57,29.41,11,3,17,0.41
2013-6-25,67.4,59.5,49.5,58.5,53.2,47.8,95,80,58,29.73,29.57,7,2,13,0.15
2013-6-26,73.2,63.2,54.9,59.0,55.1,51.7,94,76,52,29.94,29.73,6,2,11,0.02
2013-6-27,78.6,67.8,55.1,62.0,58.2,53.1,95,73,52,30.02,29.94,10,4,16,0.00
2013-6-28,92.3,74.3,56.5,63.1,58.5,53.0,92,62,32,30.07,29.86,8,2,14,0.00
2013-6-29,76.3,68.2,61.1,64.2,61.3,57.6,91,79,62,29.94,29.78,15,4,26,0.08
2013-6-30,96.0,76.2,59.9,64.0,59.3,45.8,93,63,21,29.90,29.76,6,2,11,0.00
2013-7-1,95.7,79.0,62.3,71.3,63.9,58.7,92,63,35,29.82,29.68,11,5,17,0.00
2013-7-2,97.5,81.9,64.6,70.7,65.2,56.6,90,61,28,29.79,29.63,7,2,12,0.00
2013-7-3,89.5,76.9,63.2,66.8,56.8,44.8,95,55,24,29.76,29.64,9,2,17,0.00
2013-7-4,83.7,71.1,55.0,56.9,50.4,45.8,89,53,28,29.73,29.59,9,2,20,0.00
2013-7-5,80.1,68.1,53.2,54.4,49.0,41.7,85,54,27,29.69,29.59,9,2,18,0.00
2013-7-6,85.9,69.6,49.8,58.2,51.3,47.0,90,56,30,29.73,29.61,6,1,12,0.00
2013-7-7,88.6,70.5,51.0,52.9,48.7,40.5,87,52,21,29.70,29.58,8,2,16,0.00
2013-7-8,83.0,66.4,50.7,63.6,54.4,47.2,93,68,31,29.90,29.61,8,1,17,0.13
2013-7-9,90.1,70.9,51.3,57.0,50.8,38.2,96,57,17,29.97,29.79,8,1,14,0.00
2013-7-10,91.0,72.1,53.4,56.8,50.1,44.0,88,52,23,29.80,29.54,8,2,16,0.00
2013-7-11,81.0,70.5,54.7,52.7,40.8,22.6,75,38,12,29.66,29.56,10,4,20,0.00
2013-7-12,78.6,64.5,47.7,47.0,38.9,32.6,81,43,19,29.77,29.65,7,2,16,0.00
2013-7-13,79.4,64.5,50.8,50.0,44.0,38.0,84,51,27,29.95,29.77,8,2,13,0.00
2013-7-14,86.2,66.9,44.1,52.7,45.3,40.3,90,53,21,29.97,29.73,6,2,14,0.00
2013-7-15,84.1,68.2,47.7,51.4,42.9,26.8,89,47,13,29.78,29.73,7,2,13,0.00
2013-7-16,85.3,71.6,52.2,56.6,50.4,43.6,74,49,33,29.81,29.63,19,10,30,0.00
2013-7-17,90.3,77.3,62.2,64.9,57.0,48.5,85,53,26,29.84,29.63,17,3,27,0.05
2013-7-18,92.0,74.1,55.4,59.6,51.5,38.0,91,53,17,29.92,29.81,7,1,15,0.00
2013-7-19,94.3,75.5,55.5,57.1,50.3,42.0,85,49,18,29.87,29.70,5,2,12,0.00
2013-7-20,93.6,75.6,54.7,56.2,46.2,27.6,86,45,10,29.73,29.57,10,3,20,0.00
2013-7-21,92.1,74.4,51.5,51.2,46.0,39.1,82,43,16,29.65,29.54,7,2,18,0.00
2013-7-22,91.4,75.6,56.4,53.1,49.1,42.8,81,44,19,29.69,29.57,9,2,16,0.00
2013-7-23,96.8,77.9,55.7,55.5,49.9,40.4,83,44,15,29.80,29.67,6,1,12,0.00
2013-7-24,96.6,76.5,53.0,57.3,49.8,38.3,88,47,14,29.77,29.68,6,2,14,0.00
2013-7-25,96.4,76.5,53.6,56.1,49.0,36.4,84,46,13,29.81,29.72,7,2,13,0.00
2013-7-26,94.6,76.5,52.3,52.7,44.4,29.1,86,41,10,29.84,29.68,8,2,16,0.00
2013-7-27,87.7,72.4,54.5,49.6,41.7,29.6,76,38,13,29.77,29.62,9,2,16,0.00
2013-7-28,84.0,68.8,47.9,49.5,45.0,38.9,82,47,21,29.70,29.60,6,2,14,0.00
2013-7-29,86.4,69.9,51.9,52.6,46.7,39.9,85,49,20,29.74,29.65,5,1,11,0.00
2013-7-30,89.8,72.4,54.3,53.1,47.5,37.0,80,47,17,29.88,29.73,9,2,14,0.00
2013-7-31,87.3,73.2,56.9,52.1,48.6,43.5,77,45,23,29.92,29.74,16,4,23,0.00
2013-8-1,76.7,66.5,61.2,56.7,52.4,46.3,77,61,42,29.75,29.68,9,2,12,0.01
2013-8-2,61.2,58.5,56.4,57.5,56.2,54.7,96,92,82,29.93,29.73,3,1,7,1.27
2013-8-3,75.7,61.6,55.5,58.5,56.2,54.2,97,84,49,29.97,29.87,4,0,8,0.03
2013-8-4,85.9,69.6,52.6,59.6,55.2,50.9,97,65,34,29.91,29.76,15,3,22,0.00
2013-8-5,88.3,75.2,57.0,59.9,54.6,47.9,91,54,27,29.81,29.68,6,2,15,0.00
2013-8-6,91.1,75.7,56.2,60.4,55.4,46.5,91,55,24,29.79,29.67,6,2,13,0.00
2013-8-7,93.5,77.8,59.2,59.6,52.2,41.8,88,48,17,29.74,29.64,6,2,13,0.00
2013-8-8,92.2,79.2,54.8,57.4,51.6,45.1,87,44,21,29.77,29.65,5,1,10,0.00
2013-8-9,92.5,81.5,64.2,60.8,57.8,54.2,75,46,32,29.70,29.56,17,7,25,0.00
2013-8-10,91.7,76.9,62.5,61.5,58.6,48.8,87,57,24,29.76,29.67,10,4,19,0.15
2013-8-11,91.5,81.9,63.5,60.1,57.3,53.4,80,44,34,29.77,29.64,5,2,13,0.00
2013-8-12,91.8,76.6,60.5,60.1,57.0,51.8,88,55,26,29.78,29.68,8,2,18,0.00
2013-8-13,90.1,77.1,58.2,61.0,54.2,43.9,89,51,21,29.86,29.74,4,1,9,0.00
2013-8-14,91.6,75.2,59.5,61.1,56.5,52.4,89,57,27,29.79,29.62,9,4,15,0.00
2013-8-15,93.3,78.1,56.8,59.3,54.3,49.5,90,49,24,29.75,29.64,3,1,10,0.00
2013-8-16,86.3,74.2,58.9,60.3,54.1,49.6,89,53,29,29.78,29.69,7,2,16,0.00
2013-8-17,86.8,78.1,59.0,59.5,54.3,48.6,85,46,29,29.82,29.69,9,4,20,0.00
2013-8-18,84.5,75.7,54.8,53.7,49.7,46.1,88,43,27,29.88,29.75,10,4,19,0.00
2013-8-19,84.3,73.8,54.9,53.1,49.2,46.4,85,46,27,29.83,29.71,9,4,20,0.00
2013-8-20,82.7,71.7,55.1,51.9,42.5,34.1,78,40,18,29.85,29.74,7,2,16,0.00
2013-8-21,87.8,69.4,47.6,47.5,42.7,34.3,84,44,15,29.93,29.78,8,2,17,0.00
2013-8-22,91.4,73.9,53.4,49.8,46.7,44.2,77,43,20,29.81,29.59,9,3,19,0.00
2013-8-23,81.9,73.2,62.2,56.6,53.4,45.8,76,51,36,29.64,29.55,6,2,18,0.00
2013-8-24,87.7,75.2,52.9,58.1,53.0,50.0,92,50,29,29.69,29.53,7,3,13,0.00
2013-8-25,87.4,75.6,58.4,59.4,55.2,51.4,92,53,32,29.74,29.55,5,2,14,0.07
2013-8-26,81.3,68.5,55.2,57.4,54.2,50.2,92,64,34,29.80,29.69,4,2,14,0.00
2013-8-27,86.5,69.5,50.4,57.2,51.0,46.0,93,59,26,29.82,29.63,5,1,11,0.00
2013-8-28,85.9,71.3,59.9,56.5,52.3,46.3,75,54,27,29.70,29.60,7,3,15,0.00
2013-8-29,82.5,70.7,60.3,62.6,55.7,52.2,83,61,36,29.81,29.68,7,2,17,0.16
2013-8-30,80.1,69.5,59.8,58.3,52.6,45.6,91,59,30,29.94,29.83,9,2,19,0.10
2013-8-31,87.6,73.1,49.2,55.0,47.3,37.3,90,46,19,29.94,29.74,9,3,16,0.00
2013-9-1,94.0,78.2,54.5,54.4,49.6,44.3,81,41,20,29.74,29.57,14,5,24,0.00
2013-9-2,71.4,66.5,62.6,63.8,59.6,50.9,89,79,59,29.72,29.59,7,3,13,0.08
2013-9-3,83.5,70.3,62.0,62.9,60.5,58.4,89,73,47,29.82,29.74,5,3,11,0.00
2013-9-4,91.2,73.4,62.2,68.9,63.1,57.5,89,73,34,29.82,29.71,7,2,13,0.07
2013-9-5,77.2,70.1,64.1,66.6,63.9,61.4,94,81,68,29.83,29.65,10,5,17,0.18
2013-9-6,66.1,62.0,57.3,60.5,56.1,53.2,94,82,66,29.94,29.71,7,2,16,0.24
2013-9-7,71.8,64.3,53.7,56.9,54.6,52.0,94,72,52,29.97,29.86,5,2,9,0.00
2013-9-8,71.5,61.7,54.1,56.3,54.1,52.6,98,78,54,29.92,29.82,8,3,15,0.01
2013-9-9,83.0,70.6,55.3,58.7,55.2,52.1,92,62,36,29.86,29.75,3,1,10,0.00
2013-9-10,87.8,72.7,54.0,60.0,54.7,51.4,93,59,30,29.87,29.76,5,1,14,0.00
2013-9-11,91.0,76.5,62.0,57.0,54.7,52.2,79,50,28,29.89,29.78,17,8,28,0.00
2013-9-12,94.3,76.9,60.5,56.6,54.1,48.7,82,49,24,29.81,29.63,12,2,22,0.00
2013-9-13,90.4,72.7,54.5,60.5,55.1,49.7,93,60,26,29.67,29.53,0,0,0,0.00
2013-9-14,91.0,78.3,60.5,58.1,52.6,46.4,87,45,23,29.70,29.60,14,5,21,0.00
2013-9-15,91.8,80.6,61.3,55.3,52.1,48.3,64,39,26,29.65,29.42,18,5,26,0.00
2013-9-16,72.4,64.7,59.4,59.7,53.9,49.1,92,69,50,29.71,29.54,5,2,13,0.00
2013-9-17,72.6,58.2,49.0,54.9,51.9,47.1,93,81,46,29.68,29.49,11,4,24,0.19
2013-9-18,64.6,55.6,49.9,51.1,47.8,43.3,96,76,46,29.91,29.59,9,2,27,0.01
2013-9-19,71.6,58.0,45.3,49.7,45.0,40.4,94,66,33,30.04,29.84,7,3,15,0.00
2013-9-20,76.2,64.1,47.0,48.9,46.7,43.6,89,57,35,29.82,29.42,12,5,19,0.00
2013-9-21,66.2,60.4,50.6,49.7,47.2,43.3,80,62,51,29.56,29.40,5,2,10,0.00
2013-9-22,62.0,55.0,42.2,48.8,45.8,40.6,96,73,51,29.60,29.52,13,3,25,0.10
2013-9-23,60.0,55.6,47.8,49.1,44.8,42.3,91,68,53,29.80,29.60,8,3,17,0.00
2013-9-24,60.7,52.3,49.2,49.8,45.7,41.9,93,79,50,29.79,29.63,7,1,17,0.13
2013-9-25,54.4,48.6,46.0,46.4,44.3,42.1,94,86,66,29.75,29.65,16,4,24,0.10
2013-9-26,60.8,50.6,40.2,43.9,37.7,32.3,92,65,35,29.92,29.78,10,3,21,0.00
2013-9-27,55.3,46.9,38.9,43.4,40.7,36.2,95,80,55,29.94,29.87,9,2,20,0.00
2013-9-28,56.1,53.3,46.6,51.7,49.6,44.7,93,87,80,29.83,29.41,10,4,17,0.42
2013-9-29,55.5,51.5,47.8,51.4,43.9,41.5,89,75,63,29.56,29.36,14,5,29,0.44
2013-9-30,56.8,51.9,45.6,48.2,41.1,36.7,90,67,55,29.78,29.29,16,9,31,0.08
2013-10-1,51.0,46.4,37.5,44.7,41.0,35.4,92,82,67,29.97,29.79,7,1,18,0.16
2013-10-2,53.7,45.5,39.1,41.0,38.7,36.7,93,78,57,30.08,29.92,9,2,15,0.00
2013-10-3,58.4,46.3,34.3,39.6,34.8,30.4,94,67,36,30.27,29.94,9,3,19,0.00
2013-10-4,61.6,44.6,32.4,38.4,33.4,29.9,95,69,33,30.44,30.33,4,1,9,0.00
2013-10-5,65.6,47.3,31.9,41.3,35.8,29.8,94,69,36,30.36,30.19,6,2,11,0.00
2013-10-6,69.8,54.8,38.7,45.1,41.1,36.6,94,64,33,30.19,29.83,10,4,17,0.00
2013-10-7,62.1,50.5,35.7,45.5,38.4,34.1,95,65,49,29.84,29.71,11,5,31,0.17
2013-10-8,48.6,44.2,37.5,44.0,39.8,34.9,94,85,62,29.90,29.76,7,2,15,0.14
2013-10-9,58.4,44.4,34.5,43.9,39.0,33.5,97,83,52,30.01,29.83,10,2,19,0.00
2013-10-10,52.7,45.8,40.2,42.7,40.9,38.6,95,84,63,29.85,29.77,3,0,9,0.01
2013-10-11,55.7,42.1,31.5,42.3,36.7,30.5,97,84,46,30.06,29.91,4,1,10,0.01
2013-10-12,55.8,45.6,39.0,38.7,36.2,33.4,89,71,46,30.03,29.94,10,3,17,0.00
2013-10-13,56.4,43.4,32.5,39.1,33.1,29.3,90,70,37,30.18,30.05,4,1,10,0.00
2013-10-14,58.8,41.9,26.5,37.2,30.5,25.3,97,69,33,30.33,30.21,6,2,16,0.00
2013-10-15,57.4,41.5,27.4,38.8,32.5,25.6,97,75,38,30.37,30.16,4,2,10,0.01
2013-10-16,60.0,46.1,35.4,41.0,37.3,33.0,92,74,41,30.11,30.05,3,0,8,0.00
2013-10-17,60.2,43.6,30.5,43.5,36.7,29.2,97,80,47,30.18,30.10,4,1,11,0.00
2013-10-18,58.4,42.9,29.9,41.9,35.7,28.6,97,79,46,30.25,30.11,4,1,10,0.01
2013-10-19,60.8,44.9,31.8,42.5,36.6,30.8,97,76,42,30.12,29.98,5,1,9,0.00
2013-10-20,64.2,45.0,31.4,43.5,38.3,30.4,97,80,46,30.09,30.01,4,1,8,0.01
2013-10-21,67.3,46.9,36.6,46.7,41.3,35.3,97,83,47,30.16,30.07,6,1,15,0.00
2013-10-22,65.1,44.4,37.8,48.4,41.2,36.7,98,90,52,30.15,30.03,8,2,13,0.01
2013-10-23,58.2,45.6,38.8,48.2,42.5,37.5,98,89,67,30.11,30.02,8,3,15,0.01
2013-10-24,65.4,48.2,38.7,47.1,43.1,37.1,97,84,51,30.07,29.98,8,2,16,0.00
2013-10-25,54.8,43.3,38.3,46.4,41.1,37.5,98,92,73,30.21,30.05,6,2,16,0.01
2013-10-26,54.7,43.6,33.8,45.6,40.9,32.5,98,91,72,30.25,29.99,7,2,13,0.01
2013-10-27,48.3,43.4,36.5,44.5,36.9,26.3,98,80,52,29.99,29.70,27,13,39,0.14
2013-10-28,43.9,36.8,31.7,31.9,24.1,20.9,96,62,44,29.96,29.84,22,17,36,0.00
2013-10-29,49.5,36.2,27.7,26.7,24.1,20.0,88,63,38,29.97,29.90,12,2,18,0.00
2013-10-30,48.1,34.9,21.8,31.2,26.8,20.1,95,75,47,30.03,29.95,2,0,7,0.00
2013-10-31,55.2,43.1,33.3,41.9,36.4,29.3,94,78,59,30.03,29.98,4,1,9,0.00
2013-11-1,55.5,41.7,29.2,43.0,36.8,28.2,98,84,62,30.21,30.06,2,0,7,0.00
2013-11-2,51.0,45.0,37.7,45.3,36.3,31.8,96,73,59,29.92,29.48,21,11,39,0.32
2013-11-3,41.2,38.0,34.4,34.0,32.2,28.8,92,80,66,29.87,29.66,12,5,25,0.03
2013-11-4,38.3,33.7,29.6,30.9,29.5,27.8,95,85,70,30.14,29.93,4,1,9,0.00
2013-11-5,34.5,33.0,29.2,33.2,30.5,26.4,95,91,81,30.14,30.08,5,2,11,0.01
2013-11-7,44.3,38.4,34.7,42.2,36.4,33.2,97,93,85,30.21,29.70,11,6,23,0.54
2013-11-8,48.1,40.8,33.2,38.8,35.3,31.4,94,81,61,30.07,29.84,10,4,20,0.03
2013-11-9,44.4,37.5,29.2,39.3,35.0,28.2,97,91,79,30.16,30.07,6,3,15,0.02
2013-11-10,43.2,40.2,38.6,40.5,38.2,37.0,95,93,90,30.16,30.06,8,3,15,0.01
2013-11-11,48.4,42.1,38.3,40.6,37.8,35.6,92,85,73,30.31,30.18,17,8,26,0.00
2013-11-12,46.5,42.6,37.2,42.6,39.1,34.4,92,87,82,30.26,30.17,13,4,21,0.00
2013-11-13,46.5,43.1,40.8,42.4,40.2,38.8,97,90,77,30.28,30.17,7,2,13,0.02
2013-11-14,47.1,41.5,37.1,41.5,38.6,34.8,96,90,78,30.17,29.83,6,2,12,0.00
2013-11-15,41.5,36.7,32.9,35.8,33.7,31.6,96,89,75,29.84,29.24,12,3,24,0.45
2013-11-16,40.6,35.9,31.7,36.6,33.0,28.1,95,89,77,29.58,29.10,12,4,23,0.39
2013-11-17,47.9,39.8,31.8,37.3,32.7,28.1,87,76,60,29.87,29.58,11,4,27,0.00
2013-11-18,47.1,45.3,44.2,36.4,35.3,34.6,71,68,63,29.83,29.62,9,3,19,0.00
2013-11-19,54.1,46.1,37.6,44.1,37.0,28.8,91,71,53,29.66,29.46,17,8,34,0.03
2013-11-20,38.8,30.9,23.6,28.9,10.8,1.2,68,44,23,30.33,29.66,7,2,13,0.00
2013-11-21,36.2,24.6,15.9,18.1,14.3,10.3,86,66,39,30.70,30.40,6,1,14,0.00
2013-11-22,35.7,24.8,15.9,22.8,17.5,12.0,87,75,44,30.78,30.65,7,3,13,0.00
2013-11-23,37.5,26.9,21.2,22.2,19.5,16.8,84,74,51,30.65,30.33,10,3,16,0.00
2013-11-24,43.3,28.8,18.6,26.7,22.5,15.8,91,78,51,30.36,30.25,6,1,11,0.00
2013-11-25,40.3,31.4,25.3,31.1,26.6,22.6,91,83,68,30.43,30.35,7,2,13,0.00
2013-11-26,40.7,31.3,22.5,31.1,26.8,20.8,94,84,65,30.35,30.15,7,2,12,0.00
2013-11-27,39.8,30.9,22.1,32.2,28.1,20.4,96,89,73,30.19,30.09,10,3,16,0.00
2013-11-28,38.5,30.9,23.6,31.1,27.7,21.6,94,88,74,30.16,30.11,6,2,12,0.00
2013-11-29,31.8,30.6,23.4,31.0,29.7,21.9,97,96,94,30.26,30.19,4,0,7,0.00
2013-11-30,36.8,33.7,30.2,35.8,32.9,29.5,98,97,96,30.26,30.10,2,0,4,0.05
2013-12-1,48.6,42.0,34.5,43.3,39.3,33.7,98,90,76,30.10,29.52,14,5,30,0.91
2013-12-2,47.7,35.2,25.5,41.4,27.2,16.8,92,73,59,29.91,29.48,20,8,30,0.00
2013-12-3,26.7,22.4,14.7,17.3,7.5,2.9,71,53,38,30.25,29.91,21,10,30,0.00
2013-12-4,27.3,17.2,10.7,10.8,6.8,3.0,82,65,37,30.32,30.25,4,1,9,0.00
2013-12-5,20.7,15.9,12.4,12.6,9.9,6.6,86,77,64,30.30,30.26,9,2,14,0.00
2013-12-6,16.6,10.7,5.5,6.3,-0.4,-7.9,78,61,43,30.33,30.27,21,14,30,0.00
2013-12-7,13.8,6.5,-1.2,-5.5,-8.1,-10.8,76,51,36,30.41,30.26,20,11,30,0.00
2013-12-8,14.7,7.9,-2.7,4.7,1.4,-8.0,86,75,62,30.57,30.40,3,0,6,0.00
2013-12-9,21.1,17.1,11.4,15.6,10.2,3.2,84,74,67,30.56,30.34,5,1,10,0.00
2013-12-10,31.0,23.3,18.8,20.6,17.6,14.5,88,79,63,30.45,30.32,5,1,9,0.00
2013-12-11,34.2,28.0,23.2,26.3,22.2,17.4,91,79,71,30.45,30.30,6,2,9,0.00
2013-12-12,34.3,28.6,23.9,30.1,26.2,22.0,95,91,79,30.30,30.07,8,2,11,0.00
2013-12-13,33.9,32.5,30.9,32.0,30.8,29.1,97,93,90,30.37,30.11,3,0,6,0.00
2013-12-14,41.4,36.5,32.7,38.9,34.8,31.2,98,94,87,30.38,30.23,6,1,10,0.15
2013-12-15,48.1,39.0,29.6,39.4,34.8,28.3,96,85,71,30.23,30.15,6,2,12,0.01
2013-12-16,42.9,36.0,30.4,37.7,33.5,29.1,96,91,79,30.33,30.23,6,1,9,0.00
2013-12-17,50.6,35.9,29.1,37.3,31.3,26.3,97,84,52,30.27,29.90,7,2,11,0.01
2013-12-18,38.0,32.2,26.9,34.5,29.7,24.8,94,91,86,29.91,29.80,6,1,12,0.00
2013-12-19,33.9,26.9,21.2,28.3,19.1,15.7,91,73,54,30.15,29.89,8,3,14,0.00
2013-12-20,26.9,24.9,21.2,24.5,20.0,13.1,93,82,65,30.08,29.62,6,1,9,0.00
2013-12-21,29.8,27.5,25.2,28.3,25.5,22.9,95,92,89,30.06,29.74,5,1,9,0.00
2013-12-22,37.2,31.8,29.1,32.9,30.4,27.8,97,94,84,30.23,30.06,2,0,4,0.03
2013-12-23,43.6,37.0,33.1,40.9,35.2,29.6,98,93,84,30.24,29.92,14,4,33,0.77
2013-12-24,42.0,31.4,24.6,32.5,28.0,23.4,96,88,66,30.52,30.24,7,0,12,0.00
2013-12-25,34.8,28.3,23.4,31.7,27.1,22.2,97,95,85,30.52,30.37,4,1,6,0.00
2013-12-26,37.9,30.6,24.6,33.3,28.8,23.6,98,93,81,30.40,30.26,4,1,7,0.01
2013-12-27,37.0,29.9,24.4,31.7,27.9,23.3,97,92,79,30.27,30.00,8,3,15,0.00
2013-12-28,30.4,28.2,26.5,28.6,26.9,25.6,97,95,92,30.44,30.16,4,1,8,0.00
2013-12-29,35.3,28.3,21.6,31.8,26.7,20.4,97,93,86,30.42,30.20,5,1,13,0.00
2013-12-30,33.3,29.0,21.9,31.8,27.9,20.6,98,96,92,30.28,30.08,5,2,8,0.01
2013-12-31,35.1,32.8,27.9,33.3,31.5,27.2,98,95,92,30.30,30.05,3,0,5,0.04
2014-1-1,37.4,31.8,29.4,34.5,30.8,28.7,98,96,88,30.41,30.29,5,2,10,0.00
2014-1-2,43.5,36.8,29.9,36.6,33.0,29.4,98,87,71,30.30,29.66,5,1,9,0.06